Time,TemperatureF,DewpointF,PressureIn,WindDirection,WindDirectionDegrees,WindSpeedMPH,WindSpeedGustMPH,Humidity,HourlyPrecipIn,Conditions,Clouds,dailyrainin,SoftwareType,DateUTC
2014-01-24 00:01:00,2.8,-6.9,30.18,NE,45,0.0,0.0,63,0.00,,,0.00,WUHU216HW,2014-01-24 05:01:00,
2014-01-24 00:02:00,2.8,-6.9,30.18,NE,45,0.0,0.0,63,0.00,,,0.00,WUHU216HW,2014-01-24 05:02:00,
2014-01-24 00:03:00,2.8,-6.9,30.18,NE,45,0.0,0.0,63,0.00,,,0.00,WUHU216HW,2014-01-24 05:03:00,
2014-01-24 00:08:00,2.4,-7.3,30.18,NE,45,0.0,0.0,63,0.00,,,0.00,WUHU216HW,2014-01-24 05:08:00,
2014-01-24 00:13:00,2.4,-7.3,30.18,NE,45,0.0,0.0,63,0.00,,,0.00,WUHU216HW,2014-01-24 05:13:00,
2014-01-24 00:18:00,2.1,-7.7,30.18,NE,45,0.0,0.0,63,0.00,,,0.00,WUHU216HW,2014-01-24 05:18:00,
2014-01-24 00:23:00,1.9,-7.7,30.18,NE,45,0.0,0.0,63,0.00,,,0.00,WUHU216HW,2014-01-24 05:23:00,
2014-01-24 00:28:00,1.9,-7.8,30.18,NE,45,0.0,0.0,63,0.00,,,0.00,WUHU216HW,2014-01-24 05:28:00,
2014-01-24 00:33:00,1.7,-8.0,30.18,NE,45,0.0,0.0,63,0.00,,,0.00,WUHU216HW,2014-01-24 05:33:00,
2014-01-24 00:38:00,1.5,-8.2,30.18,NE,45,0.0,0.0,63,0.00,,,0.00,WUHU216HW,2014-01-24 05:38:00,
2014-01-24 00:43:00,1.5,-8.2,30.18,NE,45,0.0,0.0,63,0.00,,,0.00,WUHU216HW,2014-01-24 05:43:00,
2014-01-24 00:48:00,1.2,-8.6,30.18,ENE,68,0.0,0.0,63,0.00,,,0.00,WUHU216HW,2014-01-24 05:48:00,
2014-01-24 00:54:00,1.2,-8.6,30.18,ENE,68,0.0,0.0,63,0.00,,,0.00,WUHU216HW,2014-01-24 05:54:00,
2014-01-24 00:59:00,1.2,-8.6,30.18,ENE,68,0.0,0.0,63,0.00,,,0.00,WUHU216HW,2014-01-24 05:59:00,
2014-01-24 01:04:00,1.2,-8.7,30.18,NNW,338,6.0,8.0,63,0.00,,,0.00,WUHU216HW,2014-01-24 06:04:00,
2014-01-24 01:09:00,1.0,-8.4,30.18,WNW,293,0.0,8.0,64,0.00,,,0.00,WUHU216HW,2014-01-24 06:09:00,
2014-01-24 01:14:00,1.0,-8.4,30.18,WNW,293,0.0,0.0,64,0.00,,,0.00,WUHU216HW,2014-01-24 06:14:00,
2014-01-24 01:19:00,0.8,-8.6,30.19,WNW,293,0.0,0.0,64,0.00,,,0.00,WUHU216HW,2014-01-24 06:19:00,
2014-01-24 01:24:00,0.6,-8.7,30.18,West,270,0.0,0.0,64,0.00,,,0.00,WUHU216HW,2014-01-24 06:24:00,
2014-01-24 01:29:00,0.6,-8.7,30.18,West,270,0.0,0.0,64,0.00,,,0.00,WUHU216HW,2014-01-24 06:29:00,
2014-01-24 01:34:00,0.6,-8.7,30.19,SSW,203,0.0,0.0,64,0.00,,,0.00,WUHU216HW,2014-01-24 06:34:00,
2014-01-24 01:39:00,0.8,-8.6,30.19,SSW,203,0.0,0.0,64,0.00,,,0.00,WUHU216HW,2014-01-24 06:39:00,
2014-01-24 01:44:00,0.8,-8.6,30.19,South,180,0.0,0.0,64,0.00,,,0.00,WUHU216HW,2014-01-24 06:44:00,
2014-01-24 01:49:00,1.0,-8.4,30.19,SSW,203,0.0,0.0,64,0.00,,,0.00,WUHU216HW,2014-01-24 06:49:00,
2014-01-24 01:54:00,1.0,-8.4,30.19,SSW,203,0.0,0.0,64,0.00,,,0.00,WUHU216HW,2014-01-24 06:54:00,
2014-01-24 02:00:00,1.0,-8.4,30.19,North,0,0.0,0.0,64,0.00,,,0.00,WUHU216HW,2014-01-24 07:00:00,
2014-01-24 02:05:00,1.0,-8.4,30.19,SW,225,0.0,0.0,64,0.00,,,0.00,WUHU216HW,2014-01-24 07:05:00,
2014-01-24 02:10:00,1.2,-7.9,30.19,West,270,0.0,0.0,65,0.00,,,0.00,WUHU216HW,2014-01-24 07:10:00,
2014-01-24 02:15:00,1.2,-8.2,30.20,ENE,68,0.0,0.0,64,0.00,,,0.00,WUHU216HW,2014-01-24 07:15:00,
2014-01-24 02:20:00,1.2,-8.2,30.20,ENE,68,0.0,0.0,64,0.00,,,0.00,WUHU216HW,2014-01-24 07:20:00,
2014-01-24 02:25:00,1.2,-8.2,30.20,NNW,338,0.0,0.0,64,0.00,,,0.00,WUHU216HW,2014-01-24 07:25:00,
2014-01-24 02:30:00,1.2,-8.2,30.20,South,180,0.0,0.0,64,0.00,,,0.00,WUHU216HW,2014-01-24 07:30:00,
2014-01-24 02:35:00,1.2,-8.2,30.20,South,180,0.0,0.0,64,0.00,,,0.00,WUHU216HW,2014-01-24 07:35:00,
2014-01-24 02:40:00,1.2,-8.2,30.20,South,180,0.0,0.0,64,0.00,,,0.00,WUHU216HW,2014-01-24 07:40:00,
2014-01-24 02:45:00,0.8,-8.6,30.20,North,0,0.0,0.0,64,0.00,,,0.00,WUHU216HW,2014-01-24 07:45:00,
2014-01-24 02:50:00,0.6,-8.7,30.20,ENE,68,0.0,0.0,64,0.00,,,0.00,WUHU216HW,2014-01-24 07:50:00,
2014-01-24 02:55:00,0.5,-8.9,30.20,NE,45,0.0,0.0,64,0.00,,,0.00,WUHU216HW,2014-01-24 07:55:00,
2014-01-24 03:00:00,0.3,-9.1,30.20,NNW,338,0.0,0.0,64,0.00,,,0.00,WUHU216HW,2014-01-24 08:00:00,
2014-01-24 03:06:00,0.1,-9.2,30.20,NW,315,0.0,0.0,64,0.00,,,0.00,WUHU216HW,2014-01-24 08:06:00,
2014-01-24 03:11:00,0.0,-9.4,30.20,SE,135,0.0,0.0,64,0.00,,,0.00,WUHU216HW,2014-01-24 08:11:00,
2014-01-24 03:16:00,0.0,-9.4,30.20,NW,315,0.0,3.0,64,0.00,,,0.00,WUHU216HW,2014-01-24 08:16:00,
2014-01-24 03:21:00,0.0,-9.1,30.20,NNW,338,0.0,3.0,65,0.00,,,0.00,WUHU216HW,2014-01-24 08:21:00,
2014-01-24 03:26:00,0.0,-9.1,30.20,East,90,0.0,2.0,65,0.00,,,0.00,WUHU216HW,2014-01-24 08:26:00,
2014-01-24 03:31:00,0.0,-9.1,30.20,East,90,0.0,2.0,65,0.00,,,0.00,WUHU216HW,2014-01-24 08:31:00,
2014-01-24 03:36:00,0.0,-9.1,30.19,West,270,0.0,6.0,65,0.00,,,0.00,WUHU216HW,2014-01-24 08:36:00,
2014-01-24 03:41:00,0.0,-9.1,30.20,SSW,203,0.0,0.0,65,0.00,,,0.00,WUHU216HW,2014-01-24 08:41:00,
2014-01-24 03:46:00,-0.2,-9.3,30.19,WSW,248,0.0,0.0,65,0.00,,,0.00,WUHU216HW,2014-01-24 08:46:00,
2014-01-24 03:51:00,-0.2,-9.6,30.20,WSW,248,0.0,0.0,64,0.00,,,0.00,WUHU216HW,2014-01-24 08:51:00,
2014-01-24 03:56:00,-0.2,-9.6,30.20,South,180,0.0,0.0,64,0.00,,,0.00,WUHU216HW,2014-01-24 08:56:00,
2014-01-24 04:01:00,-0.5,-9.7,30.20,NNW,338,0.0,9.0,64,0.00,,,0.00,WUHU216HW,2014-01-24 09:01:00,
2014-01-24 04:07:00,-0.5,-9.9,30.20,WNW,293,0.0,9.0,64,0.00,,,0.00,WUHU216HW,2014-01-24 09:07:00,
2014-01-24 04:12:00,-0.5,-9.9,30.19,NNE,23,0.0,0.0,64,0.00,,,0.00,WUHU216HW,2014-01-24 09:12:00,
2014-01-24 04:17:00,-0.5,-9.9,30.19,NNW,338,3.0,3.0,64,0.00,,,0.00,WUHU216HW,2014-01-24 09:17:00,
2014-01-24 04:22:00,-0.7,-10.1,30.20,WNW,293,0.0,3.0,64,0.00,,,0.00,WUHU216HW,2014-01-24 09:22:00,
2014-01-24 04:27:00,-0.7,-10.1,30.20,North,0,0.0,4.0,64,0.00,,,0.00,WUHU216HW,2014-01-24 09:27:00,
2014-01-24 04:32:00,-0.7,-10.1,30.20,South,180,0.0,4.0,64,0.00,,,0.00,WUHU216HW,2014-01-24 09:32:00,
2014-01-24 04:37:00,-0.7,-10.1,30.20,ESE,113,0.0,4.0,64,0.00,,,0.00,WUHU216HW,2014-01-24 09:37:00,
2014-01-24 04:42:00,-1.1,-10.4,30.19,North,0,0.0,3.0,64,0.00,,,0.00,WUHU216HW,2014-01-24 09:42:00,
2014-01-24 04:47:00,-1.1,-10.4,30.20,SE,135,0.0,3.0,64,0.00,,,0.00,WUHU216HW,2014-01-24 09:47:00,
2014-01-24 04:52:00,-1.1,-10.4,30.20,NE,45,0.0,7.0,64,0.00,,,0.00,WUHU216HW,2014-01-24 09:52:00,
2014-01-24 04:57:00,-1.1,-10.4,30.20,NE,45,0.0,7.0,64,0.00,,,0.00,WUHU216HW,2014-01-24 09:57:00,
2014-01-24 05:02:00,-1.1,-10.4,30.20,NE,45,0.0,0.0,64,0.00,,,0.00,WUHU216HW,2014-01-24 10:02:00,
2014-01-24 05:07:00,-1.3,-10.6,30.20,NE,45,0.0,0.0,64,0.00,,,0.00,WUHU216HW,2014-01-24 10:07:00,
2014-01-24 05:13:00,-1.4,-10.8,30.20,NE,45,0.0,0.0,64,0.00,,,0.00,WUHU216HW,2014-01-24 10:13:00,
2014-01-24 05:18:00,-1.6,-11.0,30.20,NE,45,0.0,0.0,64,0.00,,,0.00,WUHU216HW,2014-01-24 10:18:00,
2014-01-24 05:23:00,-1.6,-11.0,30.20,NE,45,0.0,0.0,64,0.00,,,0.00,WUHU216HW,2014-01-24 10:23:00,
2014-01-24 05:28:00,-1.8,-11.1,30.20,NE,45,0.0,0.0,64,0.00,,,0.00,WUHU216HW,2014-01-24 10:28:00,
2014-01-24 05:33:00,-2.2,-11.2,30.21,NNE,23,0.0,0.0,65,0.00,,,0.00,WUHU216HW,2014-01-24 10:33:00,
2014-01-24 05:38:00,-2.3,-11.3,30.20,NNE,23,0.0,0.0,65,0.00,,,0.00,WUHU216HW,2014-01-24 10:38:00,
2014-01-24 05:43:00,-2.3,-11.3,30.21,NNE,23,0.0,0.0,65,0.00,,,0.00,WUHU216HW,2014-01-24 10:43:00,
2014-01-24 05:48:00,-2.3,-11.3,30.20,North,0,0.0,0.0,65,0.00,,,0.00,WUHU216HW,2014-01-24 10:48:00,
2014-01-24 05:53:00,-2.3,-11.3,30.21,ENE,68,0.0,0.0,65,0.00,,,0.00,WUHU216HW,2014-01-24 10:53:00,
2014-01-24 05:58:00,-2.3,-11.3,30.22,East,90,0.0,0.0,65,0.00,,,0.00,WUHU216HW,2014-01-24 10:58:00,
2014-01-24 06:03:00,-2.3,-11.3,30.22,East,90,0.0,4.0,65,0.00,,,0.00,WUHU216HW,2014-01-24 11:03:00,
2014-01-24 06:09:00,-2.3,-11.3,30.23,East,90,0.0,4.0,65,0.00,,,0.00,WUHU216HW,2014-01-24 11:09:00,
2014-01-24 06:14:00,-2.3,-11.3,30.23,East,90,0.0,0.0,65,0.00,,,0.00,WUHU216HW,2014-01-24 11:14:00,
2014-01-24 06:19:00,-2.3,-11.3,30.23,East,90,0.0,0.0,65,0.00,,,0.00,WUHU216HW,2014-01-24 11:19:00,
2014-01-24 06:24:00,-2.5,-11.5,30.24,East,90,0.0,0.0,65,0.00,,,0.00,WUHU216HW,2014-01-24 11:24:00,
2014-01-24 06:29:00,-2.5,-11.5,30.23,NNE,23,2.0,2.0,65,0.00,,,0.00,WUHU216HW,2014-01-24 11:29:00,
2014-01-24 06:34:00,-2.7,-11.7,30.22,North,0,0.0,2.0,65,0.00,,,0.00,WUHU216HW,2014-01-24 11:34:00,
2014-01-24 06:39:00,-2.9,-11.8,30.22,NNW,338,0.0,0.0,65,0.00,,,0.00,WUHU216HW,2014-01-24 11:39:00,
2014-01-24 06:44:00,-2.9,-11.8,30.22,NNW,338,0.0,0.0,65,0.00,,,0.00,WUHU216HW,2014-01-24 11:44:00,
2014-01-24 06:49:00,-3.1,-12.0,30.22,North,0,0.0,0.0,65,0.00,,,0.00,WUHU216HW,2014-01-24 11:49:00,
2014-01-24 06:54:00,-3.2,-12.2,30.23,WSW,248,0.0,0.0,65,0.00,,,0.00,WUHU216HW,2014-01-24 11:54:00,
2014-01-24 06:59:00,-3.4,-12.4,30.23,SW,225,0.0,0.0,65,0.00,,,0.00,WUHU216HW,2014-01-24 11:59:00,
2014-01-24 07:04:00,-3.4,-12.4,30.23,WSW,248,0.0,0.0,65,0.00,,,0.00,WUHU216HW,2014-01-24 12:04:00,
2014-01-24 07:09:00,-3.6,-12.5,30.24,WSW,248,0.0,0.0,65,0.00,,,0.00,WUHU216HW,2014-01-24 12:09:00,
2014-01-24 07:14:00,-3.8,-12.7,30.23,WSW,248,0.0,0.0,65,0.00,,,0.00,WUHU216HW,2014-01-24 12:14:00,
2014-01-24 07:19:00,-4.1,-13.0,30.24,SSW,203,0.0,0.0,65,0.00,,,0.00,WUHU216HW,2014-01-24 12:19:00,
2014-01-24 07:25:00,-4.1,-13.0,30.24,SSW,203,0.0,0.0,65,0.00,,,0.00,WUHU216HW,2014-01-24 12:25:00,
2014-01-24 07:30:00,-4.3,-13.2,30.24,SSW,203,0.0,0.0,65,0.00,,,0.00,WUHU216HW,2014-01-24 12:30:00,
2014-01-24 07:35:00,-4.3,-13.2,30.24,SSW,203,0.0,0.0,65,0.00,,,0.00,WUHU216HW,2014-01-24 12:35:00,
2014-01-24 07:40:00,-4.3,-13.2,30.24,SSW,203,0.0,0.0,65,0.00,,,0.00,WUHU216HW,2014-01-24 12:40:00,
2014-01-24 07:45:00,-4.3,-13.2,30.24,SSW,203,0.0,0.0,65,0.00,,,0.00,WUHU216HW,2014-01-24 12:45:00,
2014-01-24 07:50:00,-4.3,-12.9,30.24,SSW,203,0.0,0.0,66,0.00,,,0.00,WUHU216HW,2014-01-24 12:50:00,
2014-01-24 07:55:00,-4.3,-12.9,30.24,ESE,113,0.0,0.0,66,0.00,,,0.00,WUHU216HW,2014-01-24 12:55:00,
2014-01-24 08:00:00,-4.1,-12.4,30.24,ESE,113,0.0,0.0,66,0.00,,,0.00,WUHU216HW,2014-01-24 13:00:00,
2014-01-24 08:05:00,-3.2,-12.1,30.24,North,0,0.0,0.0,66,0.00,,,0.00,WUHU216HW,2014-01-24 13:05:00,
2014-01-24 08:10:00,-2.7,-11.0,30.24,NNE,23,0.0,2.0,67,0.00,,,0.00,WUHU216HW,2014-01-24 13:10:00,
2014-01-24 08:15:00,-2.2,-10.5,30.24,NNE,23,0.0,2.0,67,0.00,,,0.00,WUHU216HW,2014-01-24 13:15:00,
2014-01-24 08:20:00,-1.4,-9.8,30.24,SSE,158,6.0,6.0,67,0.00,,,0.00,WUHU216HW,2014-01-24 13:20:00,
2014-01-24 08:25:00,-0.7,-9.5,30.24,NNE,23,0.0,6.0,66,0.00,,,0.00,WUHU216HW,2014-01-24 13:25:00,
2014-01-24 08:30:00,-0.5,-9.3,30.25,WSW,248,3.0,5.0,66,0.00,,,0.00,WUHU216HW,2014-01-24 13:30:00,
2014-01-24 08:36:00,-0.2,-9.0,30.25,South,180,0.0,11.0,66,0.00,,,0.00,WUHU216HW,2014-01-24 13:36:00,
2014-01-24 08:41:00,0.3,-8.5,30.25,WSW,248,8.0,11.0,66,0.00,,,0.00,WUHU216HW,2014-01-24 13:41:00,
2014-01-24 08:46:00,0.6,-8.4,30.25,NNW,338,0.0,8.0,65,0.00,,,0.00,WUHU216HW,2014-01-24 13:46:00,
2014-01-24 08:51:00,1.0,-8.1,30.26,North,0,0.0,0.0,65,0.00,,,0.00,WUHU216HW,2014-01-24 13:51:00,
2014-01-24 08:56:00,1.4,-8.2,30.26,West,270,1.0,1.0,64,0.00,,,0.00,WUHU216HW,2014-01-24 13:56:00,
2014-01-24 09:01:00,1.9,-7.5,30.27,NW,315,0.0,1.0,64,0.00,,,0.00,WUHU216HW,2014-01-24 14:01:00,
2014-01-24 09:06:00,1.9,-7.3,30.26,SSE,158,0.0,0.0,64,0.00,,,0.00,WUHU216HW,2014-01-24 14:06:00,
2014-01-24 09:11:00,2.4,-7.0,30.26,SE,135,0.0,0.0,64,0.00,,,0.00,WUHU216HW,2014-01-24 14:11:00,
2014-01-24 09:16:00,2.8,-6.9,30.26,NNE,23,0.0,0.0,63,0.00,,,0.00,WUHU216HW,2014-01-24 14:16:00,
2014-01-24 09:21:00,3.0,-6.8,30.25,SSW,203,0.0,0.0,63,0.00,,,0.00,WUHU216HW,2014-01-24 14:21:00,
2014-01-24 09:26:00,3.5,-6.7,30.26,West,270,2.0,3.0,62,0.00,,,0.00,WUHU216HW,2014-01-24 14:26:00,
2014-01-24 09:31:00,3.7,-6.4,30.25,NNW,338,0.0,3.0,62,0.00,,,0.00,WUHU216HW,2014-01-24 14:31:00,
2014-01-24 09:37:00,4.2,-5.9,30.25,SE,135,0.0,0.0,62,0.00,,,0.00,WUHU216HW,2014-01-24 14:37:00,
2014-01-24 09:42:00,5.3,-4.9,30.25,ESE,113,0.0,2.0,62,0.00,,,0.00,WUHU216HW,2014-01-24 14:42:00,
2014-01-24 09:47:00,6.0,-4.2,30.25,North,358,4.0,5.0,62,0.00,,,0.00,WUHU216HW,2014-01-24 14:47:00,
2014-01-24 09:52:00,6.0,-4.5,30.25,North,0,0.0,5.0,61,0.00,,,0.00,WUHU216HW,2014-01-24 14:52:00,
2014-01-24 09:57:00,6.0,-4.9,30.25,NE,45,0.0,2.0,60,0.00,,,0.00,WUHU216HW,2014-01-24 14:57:00,
2014-01-24 10:02:00,6.4,-4.5,30.25,North,0,0.0,2.0,60,0.00,,,0.00,WUHU216HW,2014-01-24 15:02:00,
2014-01-24 10:07:00,6.9,-4.0,30.25,SE,135,0.0,0.0,60,0.00,,,0.00,WUHU216HW,2014-01-24 15:07:00,
2014-01-24 10:12:00,7.5,-3.5,30.25,ESE,113,0.0,0.0,60,0.00,,,0.00,WUHU216HW,2014-01-24 15:12:00,
2014-01-24 10:17:00,7.5,-4.2,30.25,ENE,68,7.0,15.0,58,0.00,,,0.00,WUHU216HW,2014-01-24 15:17:00,
2014-01-24 10:23:00,7.1,-4.9,30.25,SE,135,0.0,15.0,57,0.00,,,0.00,WUHU216HW,2014-01-24 15:23:00,
2014-01-24 10:28:00,7.5,-4.2,30.25,SSE,158,0.0,9.0,58,0.00,,,0.00,WUHU216HW,2014-01-24 15:28:00,
2014-01-24 10:33:00,7.7,-4.1,30.25,ENE,68,0.0,4.0,58,0.00,,,0.00,WUHU216HW,2014-01-24 15:33:00,
2014-01-24 10:38:00,8.2,-4.0,30.25,NNE,23,0.0,4.0,57,0.00,,,0.00,WUHU216HW,2014-01-24 15:38:00,
2014-01-24 10:43:00,8.6,-3.6,30.24,NW,315,6.0,6.0,57,0.00,,,0.00,WUHU216HW,2014-01-24 15:43:00,
2014-01-24 10:48:00,8.9,-3.3,30.24,West,270,3.0,6.0,57,0.00,,,0.00,WUHU216HW,2014-01-24 15:48:00,
2014-01-24 10:53:00,9.3,-3.3,30.24,West,270,2.0,3.0,56,0.00,,,0.00,WUHU216HW,2014-01-24 15:53:00,
2014-01-24 10:58:00,9.5,-3.1,30.24,NNW,338,5.0,9.0,56,0.00,,,0.00,WUHU216HW,2014-01-24 15:58:00,
2014-01-24 11:03:00,9.6,-3.3,30.24,NNE,23,1.0,9.0,55,0.00,,,0.00,WUHU216HW,2014-01-24 16:03:00,
2014-01-24 11:08:00,9.6,-3.3,30.23,North,0,4.0,4.0,55,0.00,,,0.00,WUHU216HW,2014-01-24 16:08:00,
2014-01-24 11:13:00,9.3,-3.9,30.23,WSW,248,7.0,10.0,54,0.00,,,0.00,WUHU216HW,2014-01-24 16:13:00,
2014-01-24 11:18:00,9.3,-4.4,30.23,North,0,2.0,10.0,53,0.00,,,0.00,WUHU216HW,2014-01-24 16:18:00,
2014-01-24 11:23:00,9.1,-4.2,30.22,ENE,68,0.0,10.0,54,0.00,,,0.00,WUHU216HW,2014-01-24 16:23:00,
2014-01-24 11:28:00,9.6,-4.1,30.22,North,0,4.0,8.0,53,0.00,,,0.00,WUHU216HW,2014-01-24 16:28:00,
2014-01-24 11:33:00,9.6,-4.5,30.22,NE,45,0.0,10.0,53,0.00,,,0.00,WUHU216HW,2014-01-24 16:33:00,
2014-01-24 11:39:00,10.2,-3.5,30.21,SSW,203,0.0,10.0,53,0.00,,,0.00,WUHU216HW,2014-01-24 16:39:00,
2014-01-24 11:44:00,10.5,-3.0,30.21,NNE,23,9.0,9.0,53,0.00,,,0.00,WUHU216HW,2014-01-24 16:44:00,
2014-01-24 11:49:00,10.5,-3.6,30.20,North,0,2.0,9.0,52,0.00,,,0.00,WUHU216HW,2014-01-24 16:49:00,
2014-01-24 11:54:00,10.9,-3.2,30.20,NNE,23,4.0,7.0,52,0.00,,,0.00,WUHU216HW,2014-01-24 16:54:00,
2014-01-24 11:59:00,10.9,-3.2,30.20,ENE,68,0.0,7.0,52,0.00,,,0.00,WUHU216HW,2014-01-24 16:59:00,
2014-01-24 12:04:00,11.3,-3.3,30.20,SW,225,2.0,9.0,51,0.00,,,0.00,WUHU216HW,2014-01-24 17:04:00,
2014-01-24 12:09:00,11.6,-3.0,30.20,NNW,338,3.0,9.0,51,0.00,,,0.00,WUHU216HW,2014-01-24 17:09:00,
2014-01-24 12:14:00,11.8,-3.2,30.19,North,0,6.0,7.0,51,0.00,,,0.00,WUHU216HW,2014-01-24 17:14:00,
2014-01-24 12:20:00,11.8,-3.2,30.19,ENE,68,1.0,7.0,50,0.00,,,0.00,WUHU216HW,2014-01-24 17:20:00,
2014-01-24 12:25:00,12.0,-3.0,30.19,West,270,7.0,9.0,50,0.00,,,0.00,WUHU216HW,2014-01-24 17:25:00,
2014-01-24 12:30:00,12.0,-3.5,30.19,WNW,282,7.0,11.0,49,0.00,,,0.00,WUHU216HW,2014-01-24 17:30:00,
2014-01-24 12:35:00,11.8,-3.7,30.18,NNE,23,5.0,11.0,49,0.00,,,0.00,WUHU216HW,2014-01-24 17:35:00,
2014-01-24 12:40:00,11.4,-4.5,30.19,NNW,338,10.0,11.0,48,0.00,,,0.00,WUHU216HW,2014-01-24 17:40:00,
2014-01-24 12:45:00,11.3,-5.1,30.18,NE,45,0.0,11.0,47,0.00,,,0.00,WUHU216HW,2014-01-24 17:45:00,
2014-01-24 12:50:00,11.3,-5.1,30.18,SE,135,0.0,10.0,47,0.00,,,0.00,WUHU216HW,2014-01-24 17:50:00,
2014-01-24 12:55:00,11.4,-4.9,30.17,NNE,23,0.0,11.0,47,0.00,,,0.00,WUHU216HW,2014-01-24 17:55:00,
2014-01-24 13:00:00,11.4,-4.9,30.17,ESE,113,0.0,12.0,47,0.00,,,0.00,WUHU216HW,2014-01-24 18:00:00,
2014-01-24 13:05:00,11.8,-4.6,30.17,NNE,23,4.0,12.0,47,0.00,,,0.00,WUHU216HW,2014-01-24 18:05:00,
2014-01-24 13:10:00,12.0,-4.4,30.17,West,270,4.0,4.0,47,0.00,,,0.00,WUHU216HW,2014-01-24 18:10:00,
2014-01-24 13:15:00,12.0,-4.4,30.17,NNW,338,11.0,13.0,47,0.00,,,0.00,WUHU216HW,2014-01-24 18:15:00,
2014-01-24 13:20:00,12.0,-4.4,30.17,WSW,248,1.0,13.0,47,0.00,,,0.00,WUHU216HW,2014-01-24 18:20:00,
2014-01-24 13:25:00,12.0,-4.9,30.17,WSW,248,2.0,5.0,46,0.00,,,0.00,WUHU216HW,2014-01-24 18:25:00,
2014-01-24 13:30:00,12.0,-4.9,30.17,WSW,248,0.0,5.0,46,0.00,,,0.00,WUHU216HW,2014-01-24 18:30:00,
2014-01-24 13:36:00,12.0,-4.9,30.17,WSW,248,0.0,4.0,46,0.00,,,0.00,WUHU216HW,2014-01-24 18:36:00,
2014-01-24 13:41:00,12.5,-4.4,30.17,WSW,248,3.0,3.0,46,0.00,,,0.00,WUHU216HW,2014-01-24 18:41:00,
2014-01-24 13:46:00,12.7,-3.8,30.17,WSW,248,3.0,6.0,47,0.00,,,0.00,WUHU216HW,2014-01-24 18:46:00,
2014-01-24 13:51:00,12.9,-3.6,30.17,WSW,248,0.0,6.0,47,0.00,,,0.00,WUHU216HW,2014-01-24 18:51:00,
2014-01-24 13:56:00,13.1,-3.9,30.17,WSW,248,0.0,0.0,46,0.00,,,0.00,WUHU216HW,2014-01-24 18:56:00,
2014-01-24 14:01:00,13.1,-3.9,30.17,WSW,248,0.0,0.0,46,0.00,,,0.00,WUHU216HW,2014-01-24 19:01:00,
2014-01-24 14:06:00,12.9,-4.1,30.17,WSW,248,0.0,6.0,46,0.00,,,0.00,WUHU216HW,2014-01-24 19:06:00,
2014-01-24 14:11:00,12.7,-4.3,30.17,WSW,248,3.0,6.0,46,0.00,,,0.00,WUHU216HW,2014-01-24 19:11:00,
2014-01-24 14:16:00,12.7,-4.3,30.17,WSW,248,0.0,6.0,46,0.00,,,0.00,WUHU216HW,2014-01-24 19:16:00,
2014-01-24 14:21:00,12.7,-4.3,30.17,WSW,248,1.0,7.0,46,0.00,,,0.00,WUHU216HW,2014-01-24 19:21:00,
2014-01-24 14:26:00,12.5,-4.4,30.16,WSW,248,1.0,7.0,46,0.00,,,0.00,WUHU216HW,2014-01-24 19:26:00,
2014-01-24 14:31:00,12.3,-4.6,30.16,WSW,248,6.0,6.0,46,0.00,,,0.00,WUHU216HW,2014-01-24 19:31:00,
2014-01-24 14:36:00,12.0,-4.7,30.16,WSW,248,0.0,6.0,46,0.00,,,0.00,WUHU216HW,2014-01-24 19:36:00,
2014-01-24 14:41:00,12.0,-4.9,30.16,NNW,338,2.0,2.0,46,0.00,,,0.00,WUHU216HW,2014-01-24 19:41:00,
2014-01-24 14:46:00,11.8,-5.1,30.16,North,0,0.0,2.0,46,0.00,,,0.00,WUHU216HW,2014-01-24 19:46:00,
2014-01-24 14:51:00,11.4,-5.4,30.16,SW,225,0.0,2.0,46,0.00,,,0.00,WUHU216HW,2014-01-24 19:51:00,
2014-01-24 14:57:00,11.1,-5.2,30.15,SW,225,0.0,0.0,47,0.00,,,0.00,WUHU216HW,2014-01-24 19:57:00,
2014-01-24 15:02:00,11.1,-5.3,30.16,NNW,338,6.0,6.0,47,0.00,,,0.00,WUHU216HW,2014-01-24 20:02:00,
2014-01-24 15:07:00,10.9,-5.4,30.16,NNE,23,0.0,6.0,47,0.00,,,0.00,WUHU216HW,2014-01-24 20:07:00,
2014-01-24 15:12:00,10.5,-5.7,30.16,ENE,68,0.0,6.0,47,0.00,,,0.00,WUHU216HW,2014-01-24 20:12:00,
2014-01-24 15:17:00,10.5,-5.7,30.16,NNE,23,0.0,0.0,47,0.00,,,0.00,WUHU216HW,2014-01-24 20:17:00,
2014-01-24 15:22:00,10.2,-6.1,30.16,NNE,23,6.0,6.0,47,0.00,,,0.00,WUHU216HW,2014-01-24 20:22:00,
2014-01-24 15:27:00,10.2,-5.6,30.16,WSW,248,0.0,6.0,48,0.00,,,0.00,WUHU216HW,2014-01-24 20:27:00,
2014-01-24 15:32:00,10.0,-5.8,30.16,SSE,158,0.0,0.0,48,0.00,,,0.00,WUHU216HW,2014-01-24 20:32:00,
2014-01-24 15:37:00,10.0,-5.8,30.15,NE,45,0.0,0.0,48,0.00,,,0.00,WUHU216HW,2014-01-24 20:37:00,
2014-01-24 15:42:00,10.0,-5.8,30.15,South,180,0.0,0.0,48,0.00,,,0.00,WUHU216HW,2014-01-24 20:42:00,
2014-01-24 15:48:00,9.6,-6.1,30.15,SW,225,0.0,0.0,48,0.00,,,0.00,WUHU216HW,2014-01-24 20:48:00,
2014-01-24 15:53:00,9.6,-6.1,30.15,SW,225,0.0,0.0,48,0.00,,,0.00,WUHU216HW,2014-01-24 20:53:00,
2014-01-24 15:58:00,9.3,-6.5,30.15,SW,225,0.0,0.0,48,0.00,,,0.00,WUHU216HW,2014-01-24 20:58:00,
2014-01-24 16:03:00,9.1,-6.7,30.15,West,270,0.0,0.0,48,0.00,,,0.00,WUHU216HW,2014-01-24 21:03:00,
2014-01-24 16:08:00,9.1,-6.2,30.15,SW,225,0.0,0.0,49,0.00,,,0.00,WUHU216HW,2014-01-24 21:08:00,
2014-01-24 16:13:00,8.7,-6.6,30.14,SSE,158,0.0,0.0,49,0.00,,,0.00,WUHU216HW,2014-01-24 21:13:00,
2014-01-24 16:18:00,8.9,-6.4,30.14,North,0,0.0,0.0,49,0.00,,,0.00,WUHU216HW,2014-01-24 21:18:00,
2014-01-24 16:23:00,8.9,-6.4,30.13,South,180,0.0,0.0,49,0.00,,,0.00,WUHU216HW,2014-01-24 21:23:00,
2014-01-24 16:28:00,8.7,-6.6,30.14,South,180,0.0,0.0,49,0.00,,,0.00,WUHU216HW,2014-01-24 21:28:00,
2014-01-24 16:33:00,8.4,-6.5,30.14,South,180,0.0,0.0,50,0.00,,,0.00,WUHU216HW,2014-01-24 21:33:00,
2014-01-24 16:38:00,8.2,-6.6,30.14,South,180,0.0,0.0,50,0.00,,,0.00,WUHU216HW,2014-01-24 21:38:00,
2014-01-24 16:43:00,7.8,-6.8,30.14,SSE,158,0.0,0.0,50,0.00,,,0.00,WUHU216HW,2014-01-24 21:43:00,
2014-01-24 16:48:00,7.5,-7.3,30.14,SW,225,0.0,0.0,50,0.00,,,0.00,WUHU216HW,2014-01-24 21:48:00,
2014-01-24 16:54:00,7.3,-7.0,30.14,SW,225,0.0,0.0,51,0.00,,,0.00,WUHU216HW,2014-01-24 21:54:00,
2014-01-24 16:59:00,7.3,-7.0,30.15,SW,225,0.0,0.0,51,0.00,,,0.00,WUHU216HW,2014-01-24 21:59:00,
2014-01-24 17:04:00,7.1,-7.2,30.15,SW,225,0.0,0.0,51,0.00,,,0.00,WUHU216HW,2014-01-24 22:04:00,
2014-01-24 17:09:00,6.8,-7.5,30.15,SW,225,0.0,0.0,52,0.00,,,0.00,WUHU216HW,2014-01-24 22:09:00,
2014-01-24 17:14:00,6.4,-7.5,30.15,SW,225,0.0,0.0,52,0.00,,,0.00,WUHU216HW,2014-01-24 22:14:00,
2014-01-24 17:19:00,6.0,-7.5,30.15,SW,225,0.0,0.0,53,0.00,,,0.00,WUHU216HW,2014-01-24 22:19:00,
2014-01-24 17:24:00,5.7,-7.8,30.15,SW,225,0.0,0.0,53,0.00,,,0.00,WUHU216HW,2014-01-24 22:24:00,
2014-01-24 17:29:00,5.3,-8.1,30.15,SW,225,0.0,0.0,53,0.00,,,0.00,WUHU216HW,2014-01-24 22:29:00,
2014-01-24 17:34:00,5.0,-8.5,30.15,SW,225,0.0,0.0,53,0.00,,,0.00,WUHU216HW,2014-01-24 22:34:00,
2014-01-24 17:39:00,4.8,-8.3,30.15,SW,225,0.0,0.0,54,0.00,,,0.00,WUHU216HW,2014-01-24 22:39:00,
2014-01-24 17:45:00,4.8,-8.3,30.15,SW,225,0.0,0.0,54,0.00,,,0.00,WUHU216HW,2014-01-24 22:45:00,
2014-01-24 17:50:00,4.6,-8.1,30.16,SW,225,0.0,0.0,55,0.00,,,0.00,WUHU216HW,2014-01-24 22:50:00,
2014-01-24 17:55:00,4.2,-8.4,30.16,SW,225,0.0,0.0,55,0.00,,,0.00,WUHU216HW,2014-01-24 22:55:00,
2014-01-24 18:00:00,4.2,-8.4,30.16,SW,225,0.0,0.0,55,0.00,,,0.00,WUHU216HW,2014-01-24 23:00:00,
2014-01-24 18:05:00,4.1,-8.6,30.16,SW,225,0.0,0.0,55,0.00,,,0.00,WUHU216HW,2014-01-24 23:05:00,
2014-01-24 18:10:00,3.9,-8.8,30.16,SW,225,0.0,0.0,55,0.00,,,0.00,WUHU216HW,2014-01-24 23:10:00,
2014-01-24 18:15:00,3.9,-8.4,30.16,SW,225,0.0,0.0,56,0.00,,,0.00,WUHU216HW,2014-01-24 23:15:00,
2014-01-24 18:20:00,3.9,-8.4,30.16,SW,225,0.0,0.0,56,0.00,,,0.00,WUHU216HW,2014-01-24 23:20:00,
2014-01-24 18:26:00,3.9,-8.4,30.16,SW,225,0.0,0.0,56,0.00,,,0.00,WUHU216HW,2014-01-24 23:26:00,
2014-01-24 18:31:00,3.7,-8.6,30.16,SW,225,0.0,0.0,56,0.00,,,0.00,WUHU216HW,2014-01-24 23:31:00,
2014-01-24 18:36:00,3.5,-8.4,30.16,SW,225,0.0,0.0,57,0.00,,,0.00,WUHU216HW,2014-01-24 23:36:00,
2014-01-24 18:41:00,3.5,-8.4,30.16,SW,225,0.0,0.0,57,0.00,,,0.00,WUHU216HW,2014-01-24 23:41:00,
2014-01-24 18:47:00,3.3,-8.5,30.16,SW,225,0.0,0.0,57,0.00,,,0.00,WUHU216HW,2014-01-24 23:47:00,
2014-01-24 18:52:00,3.3,-8.1,30.16,SW,225,0.0,0.0,58,0.00,,,0.00,WUHU216HW,2014-01-24 23:52:00,
2014-01-24 18:57:00,3.0,-8.3,30.16,SW,225,0.0,0.0,58,0.00,,,0.00,WUHU216HW,2014-01-24 23:57:00,
2014-01-24 19:02:00,3.0,-8.5,30.15,SW,225,0.0,0.0,58,0.00,,,0.00,WUHU216HW,2014-01-25 00:02:00,
2014-01-24 19:07:00,3.0,-8.5,30.15,SW,225,0.0,0.0,58,0.00,,,0.00,WUHU216HW,2014-01-25 00:07:00,
2014-01-24 19:12:00,3.0,-8.5,30.15,SW,225,0.0,0.0,58,0.00,,,0.00,WUHU216HW,2014-01-25 00:12:00,
2014-01-24 19:17:00,2.8,-8.7,30.15,SW,225,0.0,0.0,58,0.00,,,0.00,WUHU216HW,2014-01-25 00:17:00,
2014-01-24 19:22:00,2.8,-8.3,30.15,SW,225,0.0,0.0,59,0.00,,,0.00,WUHU216HW,2014-01-25 00:22:00,
2014-01-24 19:27:00,2.8,-8.3,30.14,SW,225,0.0,0.0,59,0.00,,,0.00,WUHU216HW,2014-01-25 00:27:00,
2014-01-24 19:32:00,2.4,-8.6,30.15,SW,225,0.0,0.0,59,0.00,,,0.00,WUHU216HW,2014-01-25 00:32:00,
2014-01-24 19:37:00,2.4,-8.3,30.15,SW,225,0.0,0.0,60,0.00,,,0.00,WUHU216HW,2014-01-25 00:37:00,
2014-01-24 19:42:00,2.4,-8.3,30.14,SW,225,0.0,0.0,60,0.00,,,0.00,WUHU216HW,2014-01-25 00:42:00,
2014-01-24 19:48:00,2.4,-8.3,30.14,SW,225,0.0,0.0,60,0.00,,,0.00,WUHU216HW,2014-01-25 00:48:00,
2014-01-24 19:53:00,2.4,-8.3,30.14,SW,225,0.0,0.0,60,0.00,,,0.00,WUHU216HW,2014-01-25 00:53:00,
2014-01-24 19:58:00,2.4,-8.3,30.14,SW,225,0.0,0.0,60,0.00,,,0.00,WUHU216HW,2014-01-25 00:58:00,
2014-01-24 20:03:00,2.4,-7.9,30.14,SW,225,0.0,0.0,61,0.00,,,0.00,WUHU216HW,2014-01-25 01:03:00,
2014-01-24 20:08:00,2.4,-7.9,30.13,SW,225,0.0,0.0,61,0.00,,,0.00,WUHU216HW,2014-01-25 01:08:00,
2014-01-24 20:13:00,2.4,-7.9,30.12,SSE,158,0.0,0.0,61,0.00,,,0.00,WUHU216HW,2014-01-25 01:13:00,
2014-01-24 20:18:00,2.4,-7.6,30.12,SSE,158,0.0,0.0,62,0.00,,,0.00,WUHU216HW,2014-01-25 01:18:00,
2014-01-24 20:23:00,2.6,-7.4,30.12,SSE,158,0.0,0.0,62,0.00,,,0.00,WUHU216HW,2014-01-25 01:23:00,
2014-01-24 20:28:00,2.8,-7.3,30.12,SSE,158,0.0,0.0,62,0.00,,,0.00,WUHU216HW,2014-01-25 01:28:00,
2014-01-24 20:33:00,3.0,-7.1,30.12,ESE,113,0.0,2.0,62,0.00,,,0.00,WUHU216HW,2014-01-25 01:33:00,
2014-01-24 20:38:00,3.7,-6.1,30.12,NE,45,0.0,2.0,63,0.00,,,0.00,WUHU216HW,2014-01-25 01:38:00,
2014-01-24 20:43:00,4.2,-5.6,30.12,SE,135,0.0,0.0,63,0.00,,,0.00,WUHU216HW,2014-01-25 01:43:00,
2014-01-24 20:48:00,4.8,-5.1,30.12,SW,225,0.0,0.0,63,0.00,,,0.00,WUHU216HW,2014-01-25 01:48:00,
2014-01-24 20:53:00,5.3,-4.6,30.12,SSW,203,0.0,0.0,63,0.00,,,0.00,WUHU216HW,2014-01-25 01:53:00,
2014-01-24 20:58:00,5.7,-4.1,30.11,SE,135,0.0,0.0,63,0.00,,,0.00,WUHU216HW,2014-01-25 01:58:00,
2014-01-24 21:04:00,6.2,-4.0,30.11,South,180,0.0,0.0,62,0.00,,,0.00,WUHU216HW,2014-01-25 02:04:00,
2014-01-24 21:09:00,6.6,-3.7,30.11,SSE,158,0.0,0.0,62,0.00,,,0.00,WUHU216HW,2014-01-25 02:09:00,
2014-01-24 21:14:00,6.6,-3.7,30.11,SSE,158,1.0,1.0,62,0.00,,,0.00,WUHU216HW,2014-01-25 02:14:00,
2014-01-24 21:19:00,6.9,-3.3,30.11,SSE,158,0.0,1.0,62,0.00,,,0.00,WUHU216HW,2014-01-25 02:19:00,
2014-01-24 21:24:00,7.1,-3.2,30.10,SW,225,0.0,0.0,62,0.00,,,0.00,WUHU216HW,2014-01-25 02:24:00,
2014-01-24 21:29:00,7.3,-3.0,30.10,SE,135,4.0,4.0,62,0.00,,,0.00,WUHU216HW,2014-01-25 02:29:00,
2014-01-24 21:34:00,7.5,-3.2,30.09,SE,135,1.0,4.0,61,0.00,,,0.00,WUHU216HW,2014-01-25 02:34:00,
2014-01-24 21:39:00,7.5,-3.2,30.09,SSE,158,0.0,1.0,61,0.00,,,0.00,WUHU216HW,2014-01-25 02:39:00,
2014-01-24 21:44:00,7.7,-3.0,30.09,SE,135,0.0,1.0,61,0.00,,,0.00,WUHU216HW,2014-01-25 02:44:00,
2014-01-24 21:50:00,7.8,-2.8,30.09,NE,45,0.0,1.0,61,0.00,,,0.00,WUHU216HW,2014-01-25 02:50:00,
2014-01-24 21:55:00,8.0,-2.7,30.08,SSE,158,0.0,1.0,61,0.00,,,0.00,WUHU216HW,2014-01-25 02:55:00,
2014-01-24 22:00:00,8.2,-2.5,30.07,SE,135,0.0,0.0,61,0.00,,,0.00,WUHU216HW,2014-01-25 03:00:00,
2014-01-24 22:05:00,8.4,-2.3,30.07,SE,135,0.0,4.0,61,0.00,,,0.00,WUHU216HW,2014-01-25 03:05:00,
2014-01-24 22:10:00,8.6,-2.5,30.07,SSW,203,0.0,4.0,60,0.00,,,0.00,WUHU216HW,2014-01-25 03:10:00,
2014-01-24 22:15:00,8.7,-2.5,30.07,SSE,158,0.0,5.0,60,0.00,,,0.00,WUHU216HW,2014-01-25 03:15:00,
2014-01-24 22:20:00,8.7,-2.3,30.06,SE,135,0.0,5.0,60,0.00,,,0.00,WUHU216HW,2014-01-25 03:20:00,
2014-01-24 22:25:00,8.9,-2.5,30.06,SE,135,0.0,0.0,59,0.00,,,0.00,WUHU216HW,2014-01-25 03:25:00,
2014-01-24 22:30:00,9.1,-2.3,30.05,SE,135,2.0,9.0,59,0.00,,,0.00,WUHU216HW,2014-01-25 03:30:00,
2014-01-24 22:36:00,9.1,-2.3,30.04,SSE,158,11.0,11.0,59,0.00,,,0.00,WUHU216HW,2014-01-25 03:36:00,
2014-01-24 22:41:00,9.1,-2.3,30.04,SE,135,6.0,11.0,59,0.00,,,0.00,WUHU216HW,2014-01-25 03:41:00,
2014-01-24 22:46:00,9.1,-2.3,30.04,SE,135,0.0,8.0,59,0.00,,,0.00,WUHU216HW,2014-01-25 03:46:00,
2014-01-24 22:51:00,9.1,-2.3,30.04,SE,135,1.0,8.0,59,0.00,,,0.00,WUHU216HW,2014-01-25 03:51:00,
2014-01-24 22:56:00,9.1,-2.3,30.04,South,180,0.0,1.0,59,0.00,,,0.00,WUHU216HW,2014-01-25 03:56:00,
2014-01-24 23:01:00,9.3,-2.2,30.05,South,180,8.0,8.0,59,0.00,,,0.00,WUHU216HW,2014-01-25 04:01:00,
2014-01-24 23:06:00,9.3,-2.2,30.04,ESE,113,7.0,8.0,59,0.00,,,0.00,WUHU216HW,2014-01-25 04:06:00,
2014-01-24 23:11:00,9.5,-2.0,30.03,ESE,113,0.0,7.0,59,0.00,,,0.00,WUHU216HW,2014-01-25 04:11:00,
2014-01-24 23:16:00,9.5,-2.0,30.03,SE,132,4.0,8.0,59,0.00,,,0.00,WUHU216HW,2014-01-25 04:16:00,
2014-01-24 23:21:00,9.5,-2.0,30.03,South,180,0.0,8.0,59,0.00,,,0.00,WUHU216HW,2014-01-25 04:21:00,
2014-01-24 23:26:00,9.5,-2.4,30.02,SE,135,0.0,8.0,58,0.00,,,0.00,WUHU216HW,2014-01-25 04:26:00,
2014-01-24 23:31:00,9.5,-2.5,30.02,SE,135,0.0,8.0,58,0.00,,,0.00,WUHU216HW,2014-01-25 04:31:00,
2014-01-24 23:37:00,9.3,-2.5,30.02,NE,45,0.0,5.0,58,0.00,,,0.00,WUHU216HW,2014-01-25 04:37:00,
2014-01-24 23:42:00,9.3,-2.5,30.02,NE,45,0.0,6.0,58,0.00,,,0.00,WUHU216HW,2014-01-25 04:42:00,
2014-01-24 23:47:00,9.3,-2.5,30.02,South,180,17.0,17.0,58,0.00,,,0.00,WUHU216HW,2014-01-25 04:47:00,
2014-01-24 23:52:00,9.3,-2.5,30.02,SE,135,6.0,17.0,58,0.00,,,0.00,WUHU216HW,2014-01-25 04:52:00,
2014-01-24 23:57:00,9.3,-2.5,30.01,NE,45,0.0,6.0,58,0.00,,,0.00,WUHU216HW,2014-01-25 04:57:00,